Terminal Aerodrome Forecast
Issued by NWS

Home | Current Version | Previous Version | Text Only | Print | Product List | Glossary On
Versions: 1 2 3 4 5 6 7 8 9 10 11 12 13 14
296
FTUS46 KMTR 231730
TAFOAK
TAF
KOAK 231730Z 2318/2424 30009KT P6SM SCT009
     FM232000 29014KT P6SM FEW010
     FM240400 28008KT P6SM SCT008
      TEMPO 2404/2408 BKN008
     FM240800 28008KT P6SM OVC008
     FM241630 28009KT P6SM FEW011
     FM242100 29012KT P6SM FEW011=

USA.gov is the U.S. government's official web portal to all federal, state and local government web resources and services.